Time;durP1;ratioP1;P1;durP2;ratioP2;P2;SDS_P1;SDS_P2;PMS_P1;PMS_P2;Temp;Humidity;BMP_temperature;BMP_pressure;BME280_temperature;BME280_humidity;BME280_pressure;Samples;Min_cycle;Max_cycle;Signal;HPM_P1;HPM_P2
2023/04/12 00:00:03;;;;;;;9.60;1.10;;;8.80;99.90;;;;;;5018704;28;20579;-69
2023/04/12 00:02:28;;;;;;;5.25;1.20;;;8.80;99.90;;;;;;5019520;28;20381;-69
2023/04/12 00:04:54;;;;;;;9.50;1.20;;;8.70;99.90;;;;;;5016015;28;20033;-70
2023/04/12 00:07:23;;;;;;;2.78;0.77;;;8.70;99.90;;;;;;5010129;28;20038;-70
2023/04/12 00:09:49;;;;;;;7.38;0.88;;;8.70;99.90;;;;;;5017535;28;20037;-69
2023/04/12 00:12:19;;;;;;;11.40;1.52;;;8.70;99.90;;;;;;5012715;28;20099;-69
2023/04/12 00:14:45;;;;;;;5.80;1.08;;;8.70;99.90;;;;;;5007357;28;20379;-72
2023/04/12 00:17:11;;;;;;;5.45;1.15;;;8.70;99.90;;;;;;5015926;28;20083;-71
2023/04/12 00:19:40;;;;;;;3.83;0.80;;;8.70;99.90;;;;;;5026556;28;20117;-70
2023/04/12 00:22:09;;;;;;;5.90;0.80;;;8.60;99.90;;;;;;5022650;28;20034;-70
2023/04/12 00:24:37;;;;;;;10.00;1.27;;;8.60;99.90;;;;;;5019375;28;20055;-70
2023/04/12 00:27:04;;;;;;;5.43;0.93;;;8.60;99.90;;;;;;5015869;28;20490;-71
2023/04/12 00:29:29;;;;;;;5.07;0.90;;;8.60;99.90;;;;;;5022852;28;20512;-69
2023/04/12 00:31:55;;;;;;;5.55;0.98;;;8.60;99.90;;;;;;5024652;28;20113;-70
2023/04/12 00:34:20;;;;;;;3.75;0.98;;;8.60;99.90;;;;;;5014867;28;20029;-71
2023/04/12 00:36:46;;;;;;;5.55;0.80;;;8.50;99.90;;;;;;5016013;28;20030;-69
2023/04/12 00:39:15;;;;;;;2.33;0.73;;;8.50;99.90;;;;;;5019009;28;20033;-70
2023/04/12 00:41:40;;;;;;;2.42;0.80;;;8.50;99.90;;;;;;5021281;28;20037;-72
2023/04/12 00:44:06;;;;;;;2.88;0.85;;;8.50;99.90;;;;;;5015233;28;20026;-71
2023/04/12 00:46:32;;;;;;;7.95;0.82;;;8.50;99.90;;;;;;5023527;28;20119;-71
2023/04/12 00:48:59;;;;;;;3.72;0.77;;;8.50;99.90;;;;;;5012801;28;20030;-71
2023/04/12 00:51:32;;;;;;;1.77;0.60;;;8.50;99.90;;;;;;5021114;28;20053;-70
2023/04/12 00:53:58;;;;;;;2.75;0.60;;;8.40;99.90;;;;;;5017494;28;20030;-70
2023/04/12 00:56:27;;;;;;;3.25;0.50;;;8.40;99.90;;;;;;5021661;28;20041;-71
2023/04/12 00:58:53;;;;;;;2.72;0.70;;;8.40;99.90;;;;;;5016502;28;20063;-71
2023/04/12 01:01:20;;;;;;;2.53;0.50;;;8.40;99.90;;;;;;5020082;28;20037;-69
2023/04/12 01:03:47;;;;;;;0.70;0.57;;;8.40;99.90;;;;;;5022065;28;20742;-70
2023/04/12 01:06:28;;;;;;;2.75;0.90;;;8.40;99.90;;;;;;5016193;28;20038;-72
2023/04/12 01:09:16;;;;;;;2.83;0.30;;;8.40;99.90;;;;;;5036653;28;20048;-69
2023/04/12 01:12:01;;;;;;;3.75;0.50;;;8.40;99.90;;;;;;5039562;28;20029;-70
2023/04/12 01:15:05;;;;;;;1.42;0.60;;;8.40;99.90;;;;;;5037788;28;20037;-70
2023/04/12 01:17:36;;;;;;;3.55;0.50;;;8.40;99.90;;;;;;5028258;28;20512;-69
2023/04/12 01:20:20;;;;;;;1.33;0.50;;;8.30;99.90;;;;;;5035890;28;20038;-70
2023/04/12 01:23:17;;;;;;;1.35;0.40;;;8.40;99.90;;;;;;5029895;28;20064;-70
2023/04/12 01:26:20;;;;;;;2.58;0.82;;;8.30;99.90;;;;;;5033747;28;20037;-69
2023/04/12 01:28:53;;;;;;;6.35;1.42;;;8.30;99.90;;;;;;5034902;28;20524;-70
2023/04/12 01:31:20;;;;;;;3.15;0.45;;;8.30;99.90;;;;;;5036333;28;20037;-70
2023/04/12 01:33:48;;;;;;;4.45;1.52;;;8.30;99.90;;;;;;5036931;28;20149;-70
2023/04/12 01:36:19;;;;;;;4.95;1.45;;;8.30;99.90;;;;;;5036421;28;20108;-70
2023/04/12 01:38:47;;;;;;;4.30;0.50;;;8.30;99.90;;;;;;5046118;28;20025;-70
2023/04/12 01:41:13;;;;;;;5.15;0.40;;;8.30;99.90;;;;;;5040481;28;20634;-70
2023/04/12 01:43:46;;;;;;;2.03;0.60;;;8.30;99.90;;;;;;5032915;28;20047;-70
2023/04/12 01:46:17;;;;;;;2.97;0.50;;;8.40;99.90;;;;;;5034257;28;20475;-70
2023/04/12 01:48:53;;;;;;;3.33;0.50;;;8.40;99.90;;;;;;5034180;28;20029;-70
2023/04/12 01:51:56;;;;;;;3.08;0.68;;;8.40;99.90;;;;;;5030421;28;20033;-70
2023/04/12 01:54:26;;;;;;;3.67;0.57;;;8.40;99.90;;;;;;5036351;28;20045;-70
2023/04/12 01:56:57;;;;;;;2.27;0.70;;;8.40;99.90;;;;;;5036255;28;20041;-71
2023/04/12 01:59:25;;;;;;;3.30;0.70;;;8.40;99.90;;;;;;5036577;28;20444;-70
2023/04/12 02:01:51;;;;;;;2.30;0.57;;;8.40;99.90;;;;;;5030137;28;20505;-70
2023/04/12 02:04:21;;;;;;;3.22;0.95;;;8.40;99.90;;;;;;5037842;28;20041;-70
2023/04/12 02:06:47;;;;;;;1.27;0.77;;;8.40;99.90;;;;;;5034116;28;20032;-72
2023/04/12 02:09:12;;;;;;;5.03;0.98;;;8.40;99.90;;;;;;5039328;28;20037;-70
2023/04/12 02:11:38;;;;;;;3.25;1.08;;;8.40;99.90;;;;;;5038454;28;20051;-71
2023/04/12 02:14:04;;;;;;;4.85;0.45;;;8.30;99.90;;;;;;5045896;28;20390;-70
2023/04/12 02:16:31;;;;;;;2.55;0.45;;;8.30;99.90;;;;;;5045315;28;20045;-70
2023/04/12 02:18:57;;;;;;;4.25;1.05;;;8.30;99.90;;;;;;5042948;28;20617;-71
2023/04/12 02:21:23;;;;;;;4.50;0.50;;;8.30;99.90;;;;;;5037855;28;20116;-71
2023/04/12 02:23:55;;;;;;;3.47;0.63;;;8.30;99.90;;;;;;5037131;28;20033;-71
2023/04/12 02:26:23;;;;;;;1.65;0.43;;;8.20;99.90;;;;;;5031144;28;20049;-70
2023/04/12 02:28:52;;;;;;;4.15;0.52;;;8.20;99.90;;;;;;5040407;28;20090;-71
2023/04/12 02:31:18;;;;;;;3.70;0.70;;;8.20;99.90;;;;;;5028047;28;20065;-72
2023/04/12 02:33:44;;;;;;;3.90;0.60;;;8.20;99.90;;;;;;5036991;28;20053;-71
2023/04/12 02:36:12;;;;;;;6.32;1.67;;;8.20;99.90;;;;;;5039260;28;20029;-70
2023/04/12 02:38:44;;;;;;;4.20;0.73;;;8.20;99.90;;;;;;5039499;28;20044;-71
2023/04/12 02:41:19;;;;;;;2.40;0.60;;;8.20;99.90;;;;;;5044561;28;20056;-71
2023/04/12 02:43:45;;;;;;;5.97;0.75;;;8.20;99.90;;;;;;5032809;28;20127;-71
2023/04/12 02:46:18;;;;;;;8.00;0.80;;;8.20;99.90;;;;;;5042085;28;20067;-70
2023/04/12 02:48:47;;;;;;;4.13;1.02;;;8.20;99.90;;;;;;5041586;28;20677;-69
2023/04/12 02:51:13;;;;;;;2.08;0.75;;;8.30;99.90;;;;;;5046042;28;20119;-70
2023/04/12 02:53:38;;;;;;;3.45;0.88;;;8.30;99.90;;;;;;5044009;28;20059;-71
2023/04/12 02:56:10;;;;;;;3.15;0.55;;;8.20;99.90;;;;;;5028000;28;20048;-70
2023/04/12 02:58:39;;;;;;;4.07;1.38;;;8.20;99.90;;;;;;5039488;28;20041;-70
2023/04/12 03:01:11;;;;;;;4.78;0.65;;;8.20;99.90;;;;;;5039938;28;20033;-70
2023/04/12 03:03:37;;;;;;;3.70;0.63;;;8.20;99.90;;;;;;5040470;28;20121;-71
2023/04/12 03:06:03;;;;;;;3.15;0.68;;;8.20;99.90;;;;;;5034826;28;20466;-71
2023/04/12 03:08:30;;;;;;;2.65;0.90;;;8.20;99.90;;;;;;5032462;28;20049;-71
2023/04/12 03:10:56;;;;;;;4.68;0.80;;;8.30;99.90;;;;;;5037610;28;20472;-71
2023/04/12 03:13:22;;;;;;;9.63;0.70;;;8.20;99.90;;;;;;5036055;28;20033;-69
2023/04/12 03:15:51;;;;;;;3.83;0.70;;;8.20;99.90;;;;;;5037379;28;20039;-71
2023/04/12 03:18:20;;;;;;;3.13;0.70;;;8.20;99.90;;;;;;5041658;28;20077;-70
2023/04/12 03:20:51;;;;;;;3.50;0.88;;;8.20;99.90;;;;;;5034636;28;20567;-72
2023/04/12 03:23:17;;;;;;;;;;;8.20;99.90;;;;;;5041362;28;20446;-71
2023/04/12 03:25:45;;;;;;;3.03;0.60;;;8.20;99.90;;;;;;5047640;28;19963;-71
2023/04/12 03:28:14;;;;;;;9.05;1.02;;;8.20;99.90;;;;;;5046113;28;20045;-70
2023/04/12 03:30:39;;;;;;;4.47;0.80;;;8.20;99.90;;;;;;5036647;28;20095;-71
2023/04/12 03:33:08;;;;;;;2.78;0.80;;;8.20;99.90;;;;;;5039762;28;20066;-71
2023/04/12 03:35:33;;;;;;;4.13;0.93;;;8.20;99.90;;;;;;5037676;28;20043;-70
2023/04/12 03:37:59;;;;;;;3.40;0.70;;;8.30;99.90;;;;;;5039618;28;20124;-70
2023/04/12 03:40:24;;;;;;;3.78;0.60;;;8.20;99.90;;;;;;5043848;28;20036;-72
2023/04/12 03:42:50;;;;;;;3.72;1.23;;;8.20;99.90;;;;;;5032909;28;20655;-70
2023/04/12 03:45:18;;;;;;;2.33;0.90;;;8.20;99.90;;;;;;5039985;28;20034;-70
2023/04/12 03:47:47;;;;;;;3.83;1.80;;;8.10;99.90;;;;;;5039899;28;20731;-71
2023/04/12 03:50:12;;;;;;;4.70;0.88;;;8.20;99.90;;;;;;5042299;28;20033;-70
2023/04/12 03:52:38;;;;;;;9.98;1.42;;;8.20;99.90;;;;;;5036120;28;20512;-70
2023/04/12 03:55:06;;;;;;;1.77;0.50;;;8.20;99.90;;;;;;5036614;28;20029;-70
2023/04/12 03:57:34;;;;;;;4.72;0.90;;;8.20;99.90;;;;;;5034787;28;20029;-71
2023/04/12 04:00:03;;;;;;;4.03;0.80;;;8.20;99.90;;;;;;5037490;28;20520;-71
2023/04/12 04:02:30;;;;;;;1.67;0.80;;;8.20;99.90;;;;;;5042513;28;20033;-71
2023/04/12 04:04:56;;;;;;;2.85;1.02;;;8.20;99.90;;;;;;5035132;28;20020;-71
2023/04/12 04:07:21;;;;;;;8.15;1.00;;;8.20;99.90;;;;;;5035610;28;20082;-70
2023/04/12 04:09:48;;;;;;;4.32;0.95;;;8.20;99.90;;;;;;5040049;28;20029;-71
2023/04/12 04:12:14;;;;;;;4.28;1.05;;;8.20;99.90;;;;;;5036024;28;20037;-71
2023/04/12 04:14:39;;;;;;;5.25;0.90;;;8.20;99.90;;;;;;5033144;28;20040;-71
2023/04/12 04:17:05;;;;;;;2.70;0.80;;;8.20;99.90;;;;;;5038247;28;20040;-71
2023/04/12 04:19:34;;;;;;;2.65;0.80;;;8.20;99.90;;;;;;5030406;28;20030;-72
2023/04/12 04:22:00;;;;;;;5.53;1.00;;;8.20;99.90;;;;;;5035012;28;20065;-72
2023/04/12 04:24:26;;;;;;;3.17;0.88;;;8.20;99.90;;;;;;5042567;28;20124;-71
2023/04/12 04:26:53;;;;;;;2.90;1.42;;;8.20;99.90;;;;;;5036354;28;20675;-72
2023/04/12 04:29:19;;;;;;;3.72;0.60;;;8.20;99.90;;;;;;5034284;28;20036;-70
2023/04/12 04:31:44;;;;;;;4.47;1.58;;;8.20;99.90;;;;;;5042795;28;20029;-71
2023/04/12 04:34:10;;;;;;;4.25;0.93;;;8.20;99.90;;;;;;5036467;28;20397;-70
2023/04/12 04:36:37;;;;;;;2.78;0.80;;;8.20;99.90;;;;;;5038774;28;20028;-71
2023/04/12 04:39:03;;;;;;;2.15;1.10;;;8.20;99.90;;;;;;5039739;28;20119;-71
2023/04/12 04:41:38;;;;;;;1.88;0.95;;;8.20;99.90;;;;;;5037248;28;20136;-71
2023/04/12 04:44:09;;;;;;;5.13;1.20;;;8.20;99.90;;;;;;5040628;28;20037;-70
2023/04/12 04:46:38;;;;;;;3.08;1.33;;;8.30;99.90;;;;;;5035458;28;20072;-71
2023/04/12 04:49:04;;;;;;;4.18;1.83;;;8.30;99.90;;;;;;5041492;28;20041;-70
2023/04/12 04:51:30;;;;;;;2.15;0.90;;;8.30;99.90;;;;;;5035677;28;20041;-70
2023/04/12 04:53:57;;;;;;;5.00;1.63;;;8.30;99.90;;;;;;5035407;28;20047;-72
2023/04/12 04:56:23;;;;;;;4.90;1.35;;;8.30;99.90;;;;;;5051679;28;20033;-71
2023/04/12 04:58:49;;;;;;;4.63;1.23;;;8.30;99.90;;;;;;5045723;28;20477;-71
2023/04/12 05:01:17;;;;;;;10.18;1.20;;;8.20;99.90;;;;;;5043006;28;20048;-70
2023/04/12 05:03:48;;;;;;;3.88;0.70;;;8.30;99.90;;;;;;5042445;28;20036;-70
2023/04/12 05:06:14;;;;;;;;;;;8.30;99.90;;;;;;5043598;28;20147;-71
2023/04/12 05:08:40;;;;;;;3.92;1.08;;;8.30;99.90;;;;;;5042437;28;20003;-70
2023/04/12 05:11:05;;;;;;;1.27;0.82;;;8.30;99.90;;;;;;5042802;28;20059;-71
2023/04/12 05:13:31;;;;;;;2.50;0.98;;;8.30;99.90;;;;;;5040865;28;20098;-70
2023/04/12 05:15:56;;;;;;;2.40;0.88;;;8.30;99.90;;;;;;5040661;28;20033;-71
2023/04/12 05:18:22;;;;;;;2.67;0.85;;;8.30;99.90;;;;;;5042074;28;20567;-70
2023/04/12 05:20:48;;;;;;;2.35;0.80;;;8.40;99.90;;;;;;5040988;28;20047;-71
2023/04/12 05:23:14;;;;;;;1.75;0.70;;;8.30;99.90;;;;;;5042076;28;20045;-71
2023/04/12 05:25:45;;;;;;;2.15;1.05;;;8.30;99.90;;;;;;5040395;28;20108;-70
2023/04/12 05:28:13;;;;;;;3.75;1.13;;;8.30;99.90;;;;;;5040639;28;20131;-70
2023/04/12 05:30:41;;;;;;;3.50;0.90;;;8.40;99.90;;;;;;5041424;28;20141;-71
2023/04/12 05:33:07;;;;;;;1.40;0.70;;;8.40;99.90;;;;;;5037377;28;20041;-70
2023/04/12 05:35:32;;;;;;;2.40;0.82;;;8.40;99.90;;;;;;5041368;28;20037;-70
2023/04/12 05:37:58;;;;;;;3.38;0.70;;;8.40;99.90;;;;;;5041661;28;20039;-70
2023/04/12 05:40:23;;;;;;;1.35;0.60;;;8.40;99.90;;;;;;5038544;28;20045;-71
2023/04/12 05:42:49;;;;;;;2.67;1.13;;;8.50;99.90;;;;;;5039044;28;20044;-70
2023/04/12 05:45:15;;;;;;;4.88;1.02;;;8.50;99.90;;;;;;5041115;28;20037;-71
2023/04/12 05:47:40;;;;;;;3.03;1.20;;;8.50;99.90;;;;;;5038231;28;20477;-70
2023/04/12 05:50:06;;;;;;;3.33;1.17;;;8.50;99.90;;;;;;5045433;28;20033;-71
2023/04/12 05:52:32;;;;;;;8.82;1.40;;;8.50;99.90;;;;;;5037685;28;20036;-72
2023/04/12 05:54:58;;;;;;;6.57;1.85;;;8.50;99.90;;;;;;5037117;28;20037;-71
2023/04/12 05:57:24;;;;;;;4.18;1.20;;;8.50;99.90;;;;;;5039304;28;20083;-70
2023/04/12 05:59:53;;;;;;;6.10;1.42;;;8.50;99.90;;;;;;5037903;28;20516;-71
2023/04/12 06:02:19;;;;;;;2.92;1.77;;;8.50;99.90;;;;;;5041628;28;20035;-71
2023/04/12 06:04:45;;;;;;;4.28;1.67;;;8.50;99.90;;;;;;5038319;28;20036;-71
2023/04/12 06:07:10;;;;;;;2.80;1.20;;;8.60;99.90;;;;;;5039261;28;20051;-71
2023/04/12 06:09:36;;;;;;;5.18;1.52;;;8.50;99.90;;;;;;5034751;28;20443;-71
2023/04/12 06:12:02;;;;;;;4.60;1.60;;;8.60;99.90;;;;;;5042537;28;20738;-71
2023/04/12 06:14:27;;;;;;;2.15;1.27;;;8.60;99.90;;;;;;5037010;28;20060;-69
2023/04/12 06:16:53;;;;;;;4.47;1.77;;;8.60;99.90;;;;;;5039389;28;20029;-71
2023/04/12 06:19:18;;;;;;;4.63;1.70;;;8.70;99.90;;;;;;5042055;28;20559;-72
2023/04/12 06:21:44;;;;;;;4.15;1.75;;;8.70;99.90;;;;;;5037587;28;20519;-71
2023/04/12 06:24:10;;;;;;;5.70;1.60;;;8.70;99.90;;;;;;5035401;28;20071;-72
2023/04/12 06:26:36;;;;;;;7.07;1.83;;;8.70;99.90;;;;;;5034823;28;20045;-72
2023/04/12 06:29:02;;;;;;;3.90;1.73;;;8.70;99.90;;;;;;5038240;28;20055;-70
2023/04/12 06:31:27;;;;;;;6.45;1.90;;;8.80;99.90;;;;;;5035071;28;20676;-71
2023/04/12 06:33:53;;;;;;;6.50;1.95;;;8.80;99.90;;;;;;5036325;28;20075;-70
2023/04/12 06:36:18;;;;;;;9.30;2.35;;;8.70;99.90;;;;;;5040595;28;20045;-71
2023/04/12 06:38:44;;;;;;;4.47;1.90;;;8.70;99.90;;;;;;5039227;28;20044;-71
2023/04/12 06:41:10;;;;;;;5.43;1.83;;;8.70;99.90;;;;;;5041307;28;20118;-69
2023/04/12 06:43:36;;;;;;;6.53;2.33;;;8.80;99.90;;;;;;5061241;28;20053;-71
2023/04/12 06:46:01;;;;;;;8.73;2.67;;;8.80;99.90;;;;;;5043905;28;20086;-70
2023/04/12 06:48:28;;;;;;;9.70;2.47;;;8.80;99.90;;;;;;5040595;28;20045;-70
2023/04/12 06:50:54;;;;;;;5.78;2.00;;;8.90;99.90;;;;;;5041881;28;20108;-74
2023/04/12 06:53:20;;;;;;;7.60;2.30;;;9.00;99.90;;;;;;5037159;28;20234;-71
2023/04/12 06:55:45;;;;;;;9.23;2.55;;;9.00;99.90;;;;;;5045580;28;20040;-72
2023/04/12 06:58:11;;;;;;;6.78;2.20;;;9.00;99.90;;;;;;5039346;28;20565;-72
2023/04/12 07:00:36;;;;;;;6.68;2.58;;;9.10;99.90;;;;;;5040145;28;20045;-70
2023/04/12 07:03:02;;;;;;;7.43;2.15;;;9.00;99.90;;;;;;5036437;28;20515;-72
2023/04/12 07:05:28;;;;;;;10.13;2.70;;;9.10;99.90;;;;;;5040846;28;20044;-72
2023/04/12 07:07:53;;;;;;;10.23;2.55;;;9.10;99.90;;;;;;5038868;28;20058;-71
2023/04/12 07:10:19;;;;;;;9.23;2.33;;;9.10;99.90;;;;;;5039448;28;20098;-71
2023/04/12 07:12:45;;;;;;;8.05;2.47;;;9.20;99.90;;;;;;5043299;28;20456;-72
2023/04/12 07:15:11;;;;;;;9.80;2.30;;;9.10;99.90;;;;;;5038830;28;20490;-73
2023/04/12 07:17:36;;;;;;;7.88;2.05;;;9.10;99.90;;;;;;5041330;28;20091;-73
2023/04/12 07:20:02;;;;;;;8.10;1.85;;;9.10;99.90;;;;;;5043481;28;20895;-73
2023/04/12 07:22:28;;;;;;;7.80;2.25;;;9.20;99.90;;;;;;5037996;28;20033;-74
2023/04/12 07:24:54;;;;;;;9.43;3.40;;;9.30;99.90;;;;;;5042446;28;20033;-74
2023/04/12 07:27:19;;;;;;;10.73;1.88;;;9.30;99.90;;;;;;5046870;28;20037;-73
2023/04/12 07:29:45;;;;;;;13.73;1.73;;;9.30;99.90;;;;;;5047325;28;20037;-73
2023/04/12 07:32:11;;;;;;;14.25;2.67;;;9.40;99.90;;;;;;5046267;28;20044;-72
2023/04/12 07:34:42;;;;;;;14.10;1.85;;;9.40;99.90;;;;;;5038033;28;20087;-74
2023/04/12 07:37:11;;;;;;;12.57;2.10;;;9.50;99.90;;;;;;5038312;28;20136;-72
2023/04/12 07:39:39;;;;;;;13.32;2.53;;;9.60;99.90;;;;;;5039839;28;20078;-75
2023/04/12 07:42:05;;;;;;;11.00;1.88;;;9.60;99.90;;;;;;5040092;28;20037;-73
2023/04/12 07:44:30;;;;;;;9.40;1.48;;;9.70;99.90;;;;;;5033929;28;20408;-73
2023/04/12 07:46:56;;;;;;;12.93;1.75;;;9.70;99.90;;;;;;5038004;28;20049;-75
2023/04/12 07:49:22;;;;;;;13.50;2.10;;;9.70;99.90;;;;;;5040558;28;20087;-73
2023/04/12 07:51:47;;;;;;;14.73;1.70;;;9.70;99.90;;;;;;5036779;28;20068;-73
2023/04/12 07:54:13;;;;;;;12.85;2.15;;;9.70;99.90;;;;;;5040345;28;20459;-74
2023/04/12 07:56:38;;;;;;;12.30;2.15;;;9.70;99.90;;;;;;5043291;28;20501;-73
2023/04/12 07:59:04;;;;;;;14.25;1.83;;;9.80;99.90;;;;;;5036617;28;20047;-73
2023/04/12 08:01:30;;;;;;;13.27;2.10;;;10.00;99.90;;;;;;5038970;28;20071;-73
2023/04/12 08:03:56;;;;;;;11.45;2.20;;;10.10;99.90;;;;;;5037960;28;20064;-74
2023/04/12 08:06:21;;;;;;;14.90;1.88;;;10.30;99.90;;;;;;5043835;28;20047;-73
2023/04/12 08:08:47;;;;;;;13.88;2.15;;;10.30;99.90;;;;;;5045164;28;20033;-73
2023/04/12 08:11:12;;;;;;;9.25;1.48;;;10.40;99.90;;;;;;5043343;28;20449;-73
2023/04/12 08:13:38;;;;;;;14.05;1.98;;;10.50;99.90;;;;;;5042241;28;20052;-73
2023/04/12 08:16:05;;;;;;;9.13;2.45;;;10.50;99.90;;;;;;5042512;28;20488;-73
2023/04/12 08:18:34;;;;;;;10.85;2.22;;;10.70;99.90;;;;;;5045331;28;20567;-74
2023/04/12 08:21:00;;;;;;;12.68;2.45;;;11.00;99.90;;;;;;5033753;28;20140;-74
2023/04/12 08:23:25;;;;;;;16.10;2.00;;;11.30;99.90;;;;;;5039265;28;20135;-73
2023/04/12 08:26:01;;;;;;;13.07;2.58;;;11.40;99.90;;;;;;5042024;28;20692;-72
2023/04/12 08:28:27;;;;;;;21.25;2.25;;;11.50;99.90;;;;;;5036881;28;20044;-72
2023/04/12 08:30:53;;;;;;;11.77;1.95;;;11.80;99.90;;;;;;5035429;28;20183;-72
2023/04/12 08:33:19;;;;;;;15.73;1.80;;;11.90;99.90;;;;;;5032655;28;20128;-72
2023/04/12 08:35:44;;;;;;;14.52;2.70;;;12.00;99.90;;;;;;5039381;28;20770;-72
2023/04/12 08:38:11;;;;;;;16.52;1.80;;;12.20;99.90;;;;;;5037211;28;20737;-72
2023/04/12 08:40:40;;;;;;;18.15;2.17;;;12.30;99.90;;;;;;5038861;28;20051;-74
2023/04/12 08:43:07;;;;;;;12.65;1.23;;;12.40;99.90;;;;;;5039678;28;20033;-76
2023/04/12 08:45:34;;;;;;;9.23;1.50;;;12.70;99.90;;;;;;5037042;28;20718;-72
2023/04/12 08:48:02;;;;;;;13.65;1.52;;;12.90;99.90;;;;;;5037867;28;20815;-74
2023/04/12 08:50:29;;;;;;;13.50;2.25;;;13.20;99.90;;;;;;5036973;28;20121;-75
2023/04/12 08:52:56;;;;;;;14.38;1.60;;;13.20;99.90;;;;;;5039785;28;20044;-71
2023/04/12 08:55:22;;;;;;;17.63;1.42;;;13.40;99.90;;;;;;5037251;28;20123;-73
2023/04/12 08:57:47;;;;;;;6.85;1.20;;;13.60;99.90;;;;;;5036547;28;20086;-72
2023/04/12 09:00:15;;;;;;;16.17;2.20;;;13.60;99.90;;;;;;5035117;28;20037;-72
2023/04/12 09:02:45;;;;;;;11.50;1.88;;;13.60;99.90;;;;;;5035959;28;20044;-72
2023/04/12 09:05:13;;;;;;;10.07;1.40;;;13.40;99.90;;;;;;5035256;28;20578;-72
2023/04/12 09:07:39;;;;;;;9.77;2.30;;;13.20;99.90;;;;;;5036171;28;20505;-73
2023/04/12 09:10:05;;;;;;;21.30;2.33;;;13.20;99.90;;;;;;5038351;28;20444;-73
2023/04/12 09:12:31;;;;;;;9.32;1.08;;;13.20;99.90;;;;;;5035220;28;20043;-73
2023/04/12 09:15:12;;;;;;;12.43;1.52;;;13.20;99.90;;;;;;5038638;28;20041;-74
2023/04/12 09:17:39;;;;;;;10.10;1.02;;;13.30;99.90;;;;;;5037825;28;20164;-74
2023/04/12 09:20:11;;;;;;;13.95;1.60;;;13.40;99.90;;;;;;5042206;28;20025;-72
2023/04/12 09:22:43;;;;;;;8.38;1.30;;;13.50;99.90;;;;;;5038882;28;20489;-73
2023/04/12 09:25:09;;;;;;;8.20;1.25;;;13.80;99.90;;;;;;5039045;28;20029;-74
2023/04/12 09:27:46;;;;;;;5.63;1.58;;;13.90;99.90;;;;;;5032957;28;20587;-73
2023/04/12 09:30:12;;;;;;;8.20;1.25;;;14.00;99.90;;;;;;5041837;28;20523;-74
2023/04/12 09:32:38;;;;;;;5.45;1.08;;;14.00;99.90;;;;;;5035382;28;20064;-73
2023/04/12 09:35:07;;;;;;;12.20;1.50;;;14.00;99.90;;;;;;5038496;28;20079;-72
2023/04/12 09:37:33;;;;;;;9.80;1.63;;;13.90;99.90;;;;;;5036588;28;20028;-72
2023/04/12 09:40:06;;;;;;;11.10;1.48;;;13.80;99.90;;;;;;5039898;28;20068;-72
2023/04/12 09:42:35;;;;;;;13.02;1.85;;;13.80;99.90;;;;;;5041134;28;20042;-73
2023/04/12 09:45:22;;;;;;;8.55;1.65;;;13.80;99.90;;;;;;5041118;28;20779;-74
2023/04/12 09:47:48;;;;;;;9.30;1.35;;;13.90;99.90;;;;;;5040719;28;20109;-73
2023/04/12 09:50:22;;;;;;;11.35;1.50;;;14.00;99.90;;;;;;5041814;28;20037;-72
2023/04/12 09:52:48;;;;;;;12.60;1.38;;;14.00;99.90;;;;;;5043311;28;20033;-73
2023/04/12 09:55:15;;;;;;;6.20;1.67;;;14.10;99.90;;;;;;5040417;28;20060;-73
2023/04/12 09:57:42;;;;;;;14.50;2.00;;;14.10;99.90;;;;;;5042200;28;20043;-72
2023/04/12 10:00:16;;;;;;;8.38;1.33;;;14.10;99.90;;;;;;5041585;28;20036;-73
2023/04/12 10:02:43;;;;;;;7.60;1.08;;;14.30;99.90;;;;;;5039453;28;20468;-74
2023/04/12 10:05:14;;;;;;;10.25;1.75;;;14.30;99.90;;;;;;5036806;28;20029;-73
2023/04/12 10:07:43;;;;;;;6.72;1.20;;;14.40;99.90;;;;;;5039620;28;20079;-74
2023/04/12 10:10:11;;;;;;;17.42;2.88;;;14.30;99.90;;;;;;5036250;28;20225;-71
2023/04/12 10:12:39;;;;;;;10.93;1.02;;;14.20;99.90;;;;;;5036038;28;20053;-72
2023/04/12 10:15:11;;;;;;;8.00;1.08;;;14.20;99.90;;;;;;5036783;28;20398;-73
2023/04/12 10:17:43;;;;;;;11.57;1.77;;;14.10;99.90;;;;;;5037195;28;20041;-71
2023/04/12 10:20:10;;;;;;;11.50;1.30;;;14.00;99.90;;;;;;5037341;28;20439;-73
2023/04/12 10:22:39;;;;;;;5.70;1.25;;;14.00;99.90;;;;;;5038212;28;20032;-73
2023/04/12 10:25:08;;;;;;;12.30;1.67;;;14.00;99.90;;;;;;5032246;28;20033;-73
2023/04/12 10:27:34;;;;;;;8.70;1.60;;;14.10;99.90;;;;;;5031687;28;20706;-72
2023/04/12 10:30:35;;;;;;;14.40;2.53;;;14.20;99.90;;;;;;5032440;28;20086;-72
2023/04/12 10:33:03;;;;;;;16.23;2.17;;;14.10;99.90;;;;;;4991327;28;20042;-71
2023/04/12 10:35:48;;;;;;;11.20;2.10;;;14.10;99.90;;;;;;5030207;28;20087;-73
2023/04/12 10:38:14;;;;;;;7.97;1.38;;;13.90;99.90;;;;;;5044789;28;20037;-73
2023/04/12 10:41:05;;;;;;;11.35;2.20;;;13.70;99.90;;;;;;5040205;28;20572;-72
2023/04/12 10:43:31;;;;;;;8.02;2.03;;;13.50;99.90;;;;;;5036602;28;20084;-72
2023/04/12 10:46:02;;;;;;;15.32;2.35;;;13.40;99.90;;;;;;5035603;28;20041;-73
2023/04/12 10:48:30;;;;;;;16.52;1.60;;;13.30;99.90;;;;;;5035152;28;20036;-72
2023/04/12 10:51:14;;;;;;;16.90;2.28;;;13.20;99.90;;;;;;5037145;28;20485;-72
2023/04/12 10:53:43;;;;;;;18.58;1.60;;;13.40;99.90;;;;;;5039705;28;20401;-72
2023/04/12 10:56:30;;;;;;;8.40;1.38;;;13.60;99.90;;;;;;5039494;28;20036;-73
2023/04/12 10:59:04;;;;;;;8.18;1.63;;;13.70;99.90;;;;;;5057939;28;20037;-73
2023/04/12 11:01:34;;;;;;;6.78;1.20;;;13.90;99.90;;;;;;5036683;28;20567;-72
2023/04/12 11:04:12;;;;;;;8.35;1.48;;;14.00;99.90;;;;;;5032548;28;20040;-72
2023/04/12 11:06:51;;;;;;;17.50;1.35;;;14.10;99.90;;;;;;5036643;28;20118;-73
2023/04/12 11:09:28;;;;;;;11.90;1.50;;;14.10;99.90;;;;;;5039081;28;20037;-73
2023/04/12 11:12:02;;;;;;;10.77;1.13;;;14.40;99.90;;;;;;5039297;28;20041;-73
2023/04/12 11:14:42;;;;;;;9.27;1.23;;;14.70;99.90;;;;;;5038890;28;20541;-72
2023/04/12 11:17:08;;;;;;;10.85;1.42;;;14.70;99.90;;;;;;5039362;28;20472;-73
2023/04/12 11:19:36;;;;;;;6.72;1.30;;;14.70;99.90;;;;;;5036129;28;20037;-72
2023/04/12 11:22:10;;;;;;;10.00;1.80;;;14.70;99.90;;;;;;5044876;28;20048;-72
2023/04/12 11:24:39;;;;;;;3.63;1.10;;;14.50;99.90;;;;;;5042066;28;20044;-72
2023/04/12 11:27:05;;;;;;;6.33;1.43;;;14.60;99.90;;;;;;5037668;28;20060;-72
2023/04/12 11:29:34;;;;;;;6.20;1.33;;;14.80;99.90;;;;;;5039608;28;20514;-72
2023/04/12 11:32:02;;;;;;;5.57;1.00;;;14.90;99.90;;;;;;5039492;28;20029;-72
2023/04/12 11:34:32;;;;;;;6.70;0.88;;;14.70;99.90;;;;;;5037195;28;20630;-72
2023/04/12 11:36:59;;;;;;;3.33;0.70;;;14.70;99.90;;;;;;5033310;28;20033;-72
2023/04/12 11:39:28;;;;;;;6.93;0.47;;;14.60;99.90;;;;;;5037766;28;20029;-71
2023/04/12 11:41:55;;;;;;;3.40;0.80;;;14.60;99.90;;;;;;5037273;28;20405;-73
2023/04/12 11:44:21;;;;;;;4.55;1.58;;;14.60;99.90;;;;;;5036121;28;20384;-73
2023/04/12 11:46:47;;;;;;;5.95;0.70;;;14.60;99.90;;;;;;5039373;28;20246;-72
2023/04/12 11:49:17;;;;;;;7.88;1.33;;;14.60;99.90;;;;;;5043228;28;20057;-71
2023/04/12 11:51:46;;;;;;;5.72;0.52;;;14.70;99.20;;;;;;5040758;28;20488;-70
2023/04/12 11:54:13;;;;;;;20.17;1.42;;;14.70;99.70;;;;;;5046167;28;20041;-73
2023/04/12 11:56:39;;;;;;;6.32;1.20;;;14.70;99.60;;;;;;5044508;28;20037;-73
2023/04/12 11:59:05;;;;;;;5.03;0.50;;;14.70;98.20;;;;;;5044011;28;20051;-73
2023/04/12 12:01:34;;;;;;;3.67;0.45;;;14.80;97.40;;;;;;5043542;28;20049;-71
2023/04/12 12:04:00;;;;;;;4.15;0.82;;;14.80;96.80;;;;;;5041906;28;20045;-71
2023/04/12 12:06:26;;;;;;;4.45;0.50;;;14.70;96.80;;;;;;5044929;28;20037;-72
2023/04/12 12:08:54;;;;;;;4.50;0.40;;;14.70;95.60;;;;;;5041635;28;20061;-73
2023/04/12 12:11:20;;;;;;;5.90;0.40;;;14.70;95.60;;;;;;5042961;28;20528;-71
2023/04/12 12:13:54;;;;;;;1.58;0.57;;;14.80;95.40;;;;;;5042932;28;20120;-71
2023/04/12 12:16:27;;;;;;;3.83;0.55;;;14.90;95.40;;;;;;5040240;28;20033;-72
2023/04/12 12:18:53;;;;;;;3.25;0.60;;;15.00;94.90;;;;;;5038074;28;20037;-71
2023/04/12 12:21:19;;;;;;;3.97;0.43;;;14.90;94.10;;;;;;5045332;28;20052;-71
2023/04/12 12:23:46;;;;;;;1.73;0.60;;;14.90;94.90;;;;;;5042481;28;20064;-70
2023/04/12 12:26:26;;;;;;;3.70;0.80;;;14.80;95.20;;;;;;5044100;28;20049;-73
2023/04/12 12:28:53;;;;;;;;;;;14.80;94.10;;;;;;5043224;28;20504;-71
2023/04/12 12:31:25;;;;;;;2.13;0.55;;;14.70;95.20;;;;;;5045353;28;19924;-72
2023/04/12 12:33:58;;;;;;;2.10;0.35;;;14.50;95.70;;;;;;5043736;28;20080;-73
2023/04/12 12:36:34;;;;;;;3.92;0.60;;;14.50;94.70;;;;;;5040429;28;20045;-70
2023/04/12 12:39:09;;;;;;;3.92;0.43;;;14.50;94.50;;;;;;5040921;28;20049;-72
2023/04/12 12:41:40;;;;;;;4.40;1.05;;;14.40;95.60;;;;;;5039040;28;20539;-72
2023/04/12 12:44:06;;;;;;;2.30;0.43;;;14.50;95.20;;;;;;5044923;28;20041;-72
2023/04/12 12:46:32;;;;;;;4.97;0.40;;;14.40;94.50;;;;;;5040629;28;20037;-71
2023/04/12 12:48:58;;;;;;;1.65;0.35;;;14.40;91.70;;;;;;5041072;28;20509;-71
2023/04/12 12:51:25;;;;;;;3.45;0.20;;;14.20;92.20;;;;;;5040549;28;20032;-70
2023/04/12 12:53:51;;;;;;;1.27;0.20;;;14.10;92.90;;;;;;5037908;28;20048;-71
2023/04/12 12:56:16;;;;;;;1.80;0.32;;;13.90;93.90;;;;;;5039811;28;20041;-75